createdAt,value
2023-03-15T00:00:56.637Z,2.67
2023-03-15T00:02:00.127Z,2.08
2023-03-15T00:03:02.368Z,2.23
2023-03-15T00:04:04.838Z,2.35
2023-03-15T00:05:09.330Z,2.34
2023-03-15T00:06:13.305Z,2.47
2023-03-15T00:07:15.278Z,2.37
2023-03-15T00:08:17.894Z,2.47
2023-03-15T00:09:20.948Z,2.49
2023-03-15T00:10:22.954Z,2.91
2023-03-15T00:11:24.844Z,2.54
2023-03-15T00:12:26.773Z,2.28
2023-03-15T00:13:33.639Z,3.05
2023-03-15T00:14:36.277Z,2.22
2023-03-15T00:15:51.758Z,2.02
2023-03-15T00:16:53.805Z,2.07
2023-03-15T00:17:55.770Z,1.91
2023-03-15T00:18:59.937Z,2.65
2023-03-15T00:20:03.210Z,2.72
2023-03-15T00:21:05.128Z,2.44
2023-03-15T00:22:09.904Z,2.55
2023-03-15T00:23:12.734Z,2.74
2023-03-15T00:24:15.318Z,2.37
2023-03-15T00:25:19.420Z,2.25
2023-03-15T00:26:22.401Z,2.32
2023-03-15T00:27:24.434Z,2.83
2023-03-15T00:28:26.324Z,2.46
2023-03-15T00:29:28.360Z,2.21
2023-03-15T00:30:31.028Z,2.60
2023-03-15T00:31:33.141Z,2.67
2023-03-15T00:32:35.138Z,2.63
2023-03-15T00:33:37.416Z,2.26
2023-03-15T00:34:39.321Z,2.29
2023-03-15T00:35:43.233Z,2.18
2023-03-15T00:36:47.353Z,2.33
2023-03-15T00:37:56.511Z,2.71
2023-03-15T00:38:58.508Z,2.14
2023-03-15T00:40:00.530Z,2.41
2023-03-15T00:41:14.847Z,2.21
2023-03-15T00:42:17.432Z,2.91
2023-03-15T00:43:19.374Z,2.51
2023-03-15T00:44:21.777Z,2.44
2023-03-15T00:45:24.018Z,2.62
2023-03-15T00:46:26.330Z,2.58
2023-03-15T00:47:28.359Z,2.65
2023-03-15T00:48:31.380Z,2.74
2023-03-15T00:49:33.557Z,2.49
2023-03-15T00:50:38.767Z,2.68
2023-03-15T00:51:40.941Z,2.62
2023-03-15T00:52:42.989Z,2.70
2023-03-15T00:53:47.397Z,2.63
2023-03-15T00:54:54.058Z,2.65
2023-03-15T00:55:56.346Z,2.76
2023-03-15T00:57:02.103Z,2.44
2023-03-15T00:58:04.267Z,2.93
2023-03-15T00:59:06.504Z,2.93
2023-03-15T01:00:12.682Z,3.03
2023-03-15T01:01:17.641Z,2.94
2023-03-15T01:02:20.067Z,2.93
2023-03-15T01:03:21.992Z,2.78
2023-03-15T01:04:25.016Z,2.81
2023-03-15T01:05:27.470Z,2.76
2023-03-15T01:06:29.602Z,3.13
2023-03-15T01:07:32.248Z,3.19
2023-03-15T01:08:34.565Z,3.13
2023-03-15T01:09:36.747Z,3.15
2023-03-15T01:10:38.832Z,2.21
2023-03-15T01:11:40.869Z,2.55
2023-03-15T01:12:43.844Z,2.94
2023-03-15T01:13:47.721Z,2.54
2023-03-15T01:14:49.734Z,2.73
2023-03-15T01:15:53.066Z,2.76
2023-03-15T01:16:55.825Z,2.86
2023-03-15T01:17:57.730Z,2.63
2023-03-15T01:18:59.623Z,2.98
2023-03-15T01:20:01.789Z,2.54
2023-03-15T01:21:11.526Z,2.97
2023-03-15T01:22:13.914Z,2.96
2023-03-15T01:23:16.220Z,3.05
2023-03-15T01:24:18.150Z,2.99
2023-03-15T01:25:20.038Z,2.84
2023-03-15T01:26:22.927Z,2.63
2023-03-15T01:27:25.910Z,2.52
2023-03-15T01:28:28.506Z,2.98
2023-03-15T01:29:30.398Z,2.61
2023-03-15T01:30:33.074Z,3.13
2023-03-15T01:31:35.196Z,3.01
2023-03-15T01:32:37.347Z,2.57
2023-03-15T01:33:39.535Z,3.25
2023-03-15T01:34:42.016Z,3.15
2023-03-15T01:35:44.192Z,3.29
2023-03-15T01:36:51.521Z,2.63
2023-03-15T01:37:53.537Z,3.13
2023-03-15T01:38:55.526Z,2.82
2023-03-15T01:39:57.626Z,3.47
2023-03-15T01:41:00.639Z,2.87
2023-03-15T01:42:03.385Z,2.99
2023-03-15T01:43:09.054Z,2.83
2023-03-15T01:44:15.957Z,3.21
2023-03-15T01:45:56.880Z,3.18
2023-03-15T01:46:59.209Z,3.78
2023-03-15T01:48:01.974Z,3.35
2023-03-15T01:49:13.414Z,3.09
2023-03-15T01:50:17.344Z,3.42
2023-03-15T01:51:23.161Z,3.31
2023-03-15T01:52:29.487Z,3.00
2023-03-15T01:53:32.698Z,2.98
2023-03-15T01:55:06.000Z,3.22
2023-03-15T01:56:10.333Z,3.28
2023-03-15T01:57:21.739Z,3.47
2023-03-15T01:59:37.115Z,2.81
2023-03-15T02:00:40.258Z,3.22
2023-03-15T02:01:43.210Z,3.13
2023-03-15T02:02:57.963Z,3.53
2023-03-15T02:04:05.741Z,3.38
2023-03-15T02:05:11.413Z,3.29
2023-03-15T02:06:17.766Z,3.28
2023-03-15T02:07:23.022Z,3.21
2023-03-15T02:08:28.352Z,3.15
2023-03-15T02:09:46.063Z,3.17
2023-03-15T02:10:51.493Z,3.34
2023-03-15T02:11:54.051Z,3.54
2023-03-15T02:12:59.390Z,3.25
2023-03-15T02:14:03.837Z,3.98
2023-03-15T02:15:07.806Z,3.44
2023-03-15T02:16:12.895Z,3.71
2023-03-15T02:17:15.101Z,3.12
2023-03-15T02:18:17.520Z,3.23
2023-03-15T02:19:32.476Z,3.07
2023-03-15T02:20:41.200Z,3.29
2023-03-15T02:21:46.857Z,2.92
2023-03-15T02:22:55.485Z,3.33
2023-03-15T02:24:01.157Z,3.17
2023-03-15T02:25:12.840Z,3.09
2023-03-15T02:27:32.446Z,3.38
2023-03-15T02:28:36.795Z,3.96
2023-03-15T02:29:39.034Z,3.25
2023-03-15T02:30:43.120Z,3.35
2023-03-15T02:31:45.575Z,3.45
2023-03-15T02:32:48.626Z,4.03
2023-03-15T02:33:52.912Z,3.83
2023-03-15T02:34:55.284Z,3.88
2023-03-15T02:36:12.654Z,3.99
2023-03-15T02:37:14.844Z,4.00
2023-03-15T02:38:17.737Z,3.54
2023-03-15T02:39:21.911Z,4.01
2023-03-15T02:40:26.818Z,3.51
2023-03-15T02:41:40.895Z,3.88
2023-03-15T02:42:43.414Z,3.58
2023-03-15T02:43:48.100Z,4.02
2023-03-15T02:44:51.156Z,3.81
2023-03-15T02:45:53.720Z,4.22
2023-03-15T02:46:59.612Z,3.89
2023-03-15T02:48:04.256Z,3.76
2023-03-15T02:49:07.896Z,4.14
2023-03-15T02:50:10.772Z,3.34
2023-03-15T02:51:27.992Z,3.62
2023-03-15T02:52:30.017Z,4.05
2023-03-15T02:53:32.102Z,4.04
2023-03-15T02:54:35.408Z,3.73
2023-03-15T02:55:38.109Z,3.84
2023-03-15T02:56:40.980Z,3.67
2023-03-15T02:57:43.053Z,3.77
2023-03-15T02:58:45.228Z,3.76
2023-03-15T02:59:47.314Z,3.74
2023-03-15T03:00:49.790Z,3.73
2023-03-15T03:01:52.498Z,3.81
2023-03-15T03:02:54.963Z,3.61
2023-03-15T03:03:56.862Z,3.35
2023-03-15T03:04:58.745Z,3.55
2023-03-15T03:06:00.659Z,3.69
2023-03-15T03:07:02.864Z,3.57
2023-03-15T03:08:07.051Z,3.13
2023-03-15T03:09:10.494Z,3.35
2023-03-15T03:10:16.728Z,3.49
2023-03-15T03:11:18.723Z,4.19
2023-03-15T03:12:20.616Z,3.95
2023-03-15T03:13:22.789Z,4.03
2023-03-15T03:14:26.166Z,5.38
2023-03-15T03:15:28.085Z,5.56
2023-03-15T03:16:30.308Z,6.05
2023-03-15T03:17:34.543Z,5.99
2023-03-15T03:18:37.252Z,6.18
2023-03-15T03:19:39.475Z,6.91
2023-03-15T03:20:41.551Z,6.94
2023-03-15T03:21:43.424Z,6.99
2023-03-15T03:22:45.800Z,7.91
2023-03-15T03:23:47.873Z,8.26
2023-03-15T03:24:52.527Z,8.47
2023-03-15T03:25:55.954Z,8.22
2023-03-15T03:26:58.288Z,8.01
2023-03-15T03:28:00.888Z,9.19
2023-03-15T03:29:04.368Z,8.53
2023-03-15T03:30:10.786Z,8.68
2023-03-15T03:31:19.224Z,7.79
2023-03-15T03:32:21.435Z,8.21
2023-03-15T03:33:24.032Z,7.44
2023-03-15T03:34:25.908Z,7.79
2023-03-15T03:35:27.802Z,7.66
2023-03-15T03:36:29.893Z,7.63
2023-03-15T03:37:31.850Z,7.11
2023-03-15T03:38:33.887Z,7.43
2023-03-15T03:39:35.924Z,8.18
2023-03-15T03:40:38.760Z,7.29
2023-03-15T03:41:40.981Z,7.01
2023-03-15T03:42:42.905Z,7.17
2023-03-15T03:43:44.766Z,7.05
2023-03-15T03:44:46.708Z,7.24
2023-03-15T03:45:48.772Z,7.03
2023-03-15T03:46:51.174Z,7.19
2023-03-15T03:47:53.096Z,7.35
2023-03-15T03:48:55.018Z,7.41
2023-03-15T03:49:56.865Z,6.95
2023-03-15T03:50:59.313Z,8.33
2023-03-15T03:52:01.320Z,8.57
2023-03-15T03:53:04.416Z,8.32
2023-03-15T03:54:07.079Z,8.88
2023-03-15T03:55:11.858Z,9.50
2023-03-15T03:56:14.094Z,9.32
2023-03-15T03:57:16.134Z,9.22
2023-03-15T03:58:18.496Z,8.90
2023-03-15T03:59:20.490Z,9.35
2023-03-15T04:00:22.648Z,8.59
2023-03-15T04:01:25.351Z,8.86
2023-03-15T04:02:27.316Z,8.89
2023-03-15T04:03:29.867Z,8.41
2023-03-15T04:04:31.841Z,7.80
2023-03-15T04:05:34.765Z,7.37
2023-03-15T04:06:36.740Z,6.69
2023-03-15T04:07:38.880Z,6.38
2023-03-15T04:08:41.164Z,7.15
2023-03-15T04:09:43.193Z,6.73
2023-03-15T04:10:47.351Z,7.28
2023-03-15T04:11:49.461Z,5.96
2023-03-15T04:12:55.396Z,7.14
2023-03-15T04:13:57.413Z,14.24
2023-03-15T04:14:59.322Z,10.41
2023-03-15T04:16:01.787Z,10.23
2023-03-15T04:17:05.090Z,8.22
2023-03-15T04:18:07.566Z,6.93
2023-03-15T04:19:09.601Z,7.41
2023-03-15T04:20:11.883Z,7.09
2023-03-15T04:21:13.856Z,9.30
2023-03-15T04:22:16.091Z,13.23
2023-03-15T04:23:18.759Z,9.37
2023-03-15T04:24:20.668Z,8.37
2023-03-15T04:25:22.731Z,6.45
2023-03-15T04:26:25.689Z,6.98
2023-03-15T04:27:28.793Z,7.69
2023-03-15T04:28:31.956Z,8.33
2023-03-15T04:29:34.109Z,7.01
2023-03-15T04:30:37.129Z,8.57
2023-03-15T04:31:39.059Z,7.91
2023-03-15T04:32:41.899Z,8.57
2023-03-15T04:33:44.016Z,8.74
2023-03-15T04:34:46.011Z,8.76
2023-03-15T04:35:47.986Z,9.45
2023-03-15T04:36:50.196Z,9.73
2023-03-15T04:37:53.844Z,9.65
2023-03-15T04:38:57.249Z,9.83
2023-03-15T04:40:00.980Z,9.25
2023-03-15T04:41:05.176Z,8.53
2023-03-15T04:42:07.467Z,8.61
2023-03-15T04:43:09.892Z,7.41
2023-03-15T04:44:11.898Z,7.90
2023-03-15T04:45:13.947Z,7.77
2023-03-15T04:46:16.234Z,8.13
2023-03-15T04:47:18.385Z,9.14
2023-03-15T04:48:20.383Z,8.84
2023-03-15T04:49:22.419Z,9.65
2023-03-15T04:50:25.424Z,9.28
2023-03-15T04:51:27.415Z,9.58
2023-03-15T04:52:29.514Z,10.11
2023-03-15T04:53:31.502Z,9.59
2023-03-15T04:54:33.954Z,9.97
2023-03-15T04:55:35.874Z,10.50
2023-03-15T04:56:39.155Z,10.06
2023-03-15T04:57:41.062Z,9.79
2023-03-15T04:58:42.961Z,9.21
2023-03-15T04:59:44.845Z,9.69
2023-03-15T05:00:47.056Z,9.73
2023-03-15T05:01:49.178Z,9.92
2023-03-15T05:02:51.140Z,10.57
2023-03-15T05:03:54.154Z,11.38
2023-03-15T05:04:56.172Z,10.99
2023-03-15T05:05:58.065Z,11.35
2023-03-15T05:07:00.092Z,10.89
2023-03-15T05:08:02.312Z,10.79
2023-03-15T05:09:04.427Z,11.23
2023-03-15T05:10:07.513Z,11.09
2023-03-15T05:11:09.425Z,11.19
2023-03-15T05:12:12.398Z,11.51
2023-03-15T05:13:14.394Z,11.06
2023-03-15T05:14:16.437Z,11.49
2023-03-15T05:15:18.632Z,11.01
2023-03-15T05:16:21.068Z,14.51
2023-03-15T05:17:23.261Z,15.51
2023-03-15T05:18:25.157Z,12.50
2023-03-15T05:19:27.043Z,12.37
2023-03-15T05:20:29.121Z,11.05
2023-03-15T05:21:31.015Z,10.08
2023-03-15T05:22:33.611Z,9.83
2023-03-15T05:23:35.613Z,9.37
2023-03-15T05:24:37.503Z,10.15
2023-03-15T05:25:39.597Z,9.86
2023-03-15T05:26:41.909Z,12.45
2023-03-15T05:27:44.906Z,9.19
2023-03-15T05:28:47.057Z,8.38
2023-03-15T05:29:48.967Z,7.18
2023-03-15T05:30:53.335Z,7.57
2023-03-15T05:31:55.635Z,7.72
2023-03-15T05:32:59.912Z,7.43
2023-03-15T05:34:02.688Z,7.89
2023-03-15T05:35:06.667Z,7.50
2023-03-15T05:36:09.190Z,7.19
2023-03-15T05:37:11.157Z,8.15
2023-03-15T05:38:13.550Z,7.15
2023-03-15T05:39:15.440Z,6.72
2023-03-15T05:40:18.114Z,7.29
2023-03-15T05:41:20.053Z,6.55
2023-03-15T05:42:24.036Z,6.93
2023-03-15T05:43:25.942Z,7.24
2023-03-15T05:44:27.924Z,6.95
2023-03-15T05:45:29.808Z,6.65
2023-03-15T05:46:32.114Z,6.97
2023-03-15T05:47:34.246Z,6.71
2023-03-15T05:48:36.336Z,8.35
2023-03-15T05:49:38.232Z,8.65
2023-03-15T05:50:40.747Z,8.11
2023-03-15T05:51:42.746Z,7.31
2023-03-15T05:52:44.940Z,7.72
2023-03-15T05:53:46.826Z,6.57
2023-03-15T05:54:49.616Z,6.99
2023-03-15T05:55:52.171Z,7.76
2023-03-15T05:56:54.167Z,8.71
2023-03-15T05:57:56.046Z,7.98
2023-03-15T05:58:57.925Z,8.28
2023-03-15T05:59:59.808Z,7.23
2023-03-15T06:01:03.671Z,8.11
2023-03-15T06:02:06.603Z,7.51
2023-03-15T06:03:08.519Z,8.14
2023-03-15T06:04:10.551Z,8.99
2023-03-15T06:05:12.929Z,9.71
2023-03-15T06:06:15.383Z,8.04
2023-03-15T06:07:19.694Z,7.45
2023-03-15T06:08:21.774Z,8.74
2023-03-15T06:09:23.786Z,8.40
2023-03-15T06:10:25.802Z,7.79
2023-03-15T06:11:28.098Z,8.29
2023-03-15T06:12:29.997Z,7.79
2023-03-15T06:13:32.042Z,8.69
2023-03-15T06:14:33.933Z,8.55
2023-03-15T06:15:37.110Z,8.98
2023-03-15T06:16:39.512Z,9.16
2023-03-15T06:17:42.600Z,9.33
2023-03-15T06:18:44.613Z,9.88
2023-03-15T06:19:46.744Z,10.29
2023-03-15T06:20:48.870Z,10.13
2023-03-15T06:21:50.765Z,10.43
2023-03-15T06:22:52.817Z,9.63
2023-03-15T06:23:54.866Z,11.05
2023-03-15T06:24:56.757Z,9.31
2023-03-15T06:25:58.679Z,9.84
2023-03-15T06:27:01.459Z,9.18
2023-03-15T06:28:03.478Z,8.65
2023-03-15T06:29:06.084Z,8.55
2023-03-15T06:30:09.720Z,10.49
2023-03-15T06:31:15.115Z,9.58
2023-03-15T06:32:17.480Z,9.30
2023-03-15T06:33:19.486Z,9.97
2023-03-15T06:34:22.054Z,9.29
2023-03-15T06:35:23.952Z,9.31
2023-03-15T06:36:25.943Z,8.60
2023-03-15T06:37:35.151Z,9.37
2023-03-15T06:38:32.798Z,8.48
2023-03-15T06:39:35.798Z,8.55
2023-03-15T06:40:38.015Z,8.73
2023-03-15T06:41:40.236Z,9.59
2023-03-15T06:42:42.557Z,9.05
2023-03-15T06:43:44.492Z,8.61
2023-03-15T06:44:46.607Z,8.31
2023-03-15T06:45:48.577Z,7.88
2023-03-15T06:46:50.722Z,7.66
2023-03-15T06:47:53.350Z,8.49
2023-03-15T06:48:55.847Z,8.20
2023-03-15T06:49:57.761Z,7.83
2023-03-15T06:50:59.842Z,8.13
2023-03-15T06:52:03.244Z,7.98
2023-03-15T06:53:06.246Z,7.64
2023-03-15T06:54:08.235Z,8.68
2023-03-15T06:55:10.118Z,8.47
2023-03-15T06:56:12.259Z,8.08
2023-03-15T06:57:14.419Z,7.65
2023-03-15T06:58:16.413Z,9.25
2023-03-15T06:59:18.940Z,8.09
2023-03-15T07:00:23.766Z,7.75
2023-03-15T07:01:25.676Z,7.72
2023-03-15T07:02:27.673Z,7.89
2023-03-15T07:03:29.825Z,7.89
2023-03-15T07:04:31.829Z,8.04
2023-03-15T07:05:33.714Z,7.91
2023-03-15T07:06:35.737Z,7.90
2023-03-15T07:07:37.707Z,7.25
2023-03-15T07:08:39.713Z,7.65
2023-03-15T07:09:41.790Z,7.23
2023-03-15T07:10:44.002Z,7.75
2023-03-15T07:11:46.344Z,7.51
2023-03-15T07:12:48.341Z,7.15
2023-03-15T07:13:50.215Z,7.99
2023-03-15T07:14:53.219Z,7.01
2023-03-15T07:15:56.063Z,7.99
2023-03-15T07:16:58.258Z,7.96
2023-03-15T07:18:00.234Z,7.77
2023-03-15T07:19:03.358Z,8.07
2023-03-15T07:20:06.310Z,7.96
2023-03-15T07:21:08.185Z,7.37
2023-03-15T07:22:11.087Z,8.07
2023-03-15T07:23:13.196Z,7.79
2023-03-15T07:24:15.412Z,6.37
2023-03-15T07:25:17.335Z,7.39
2023-03-15T07:26:19.962Z,7.59
2023-03-15T07:27:22.798Z,7.13
2023-03-15T07:28:26.203Z,7.87
2023-03-15T07:29:28.387Z,7.16
2023-03-15T07:30:30.585Z,7.42
2023-03-15T07:31:32.607Z,6.67
2023-03-15T07:32:34.552Z,6.67
2023-03-15T07:33:38.375Z,6.56
2023-03-15T07:34:40.506Z,7.55
2023-03-15T07:35:42.635Z,7.29
2023-03-15T07:36:45.121Z,7.39
2023-03-15T07:37:47.256Z,6.75
2023-03-15T07:38:49.242Z,7.63
2023-03-15T07:39:51.114Z,6.67
2023-03-15T07:40:53.101Z,6.83
2023-03-15T07:41:55.677Z,6.35
2023-03-15T07:42:57.565Z,6.89
2023-03-15T07:43:59.631Z,7.03
2023-03-15T07:45:03.867Z,6.89
2023-03-15T07:46:06.229Z,7.11
2023-03-15T07:47:09.971Z,7.41
2023-03-15T07:48:12.748Z,7.42
2023-03-15T07:49:14.608Z,7.59
2023-03-15T07:50:17.320Z,7.49
2023-03-15T07:51:19.349Z,7.30
2023-03-15T07:52:21.585Z,7.14
2023-03-15T07:53:23.674Z,6.37
2023-03-15T07:54:26.944Z,6.37
2023-03-15T07:55:30.511Z,6.09
2023-03-15T07:56:34.977Z,5.72
2023-03-15T07:57:37.006Z,6.16
2023-03-15T07:58:38.897Z,6.77
2023-03-15T07:59:40.975Z,6.55
2023-03-15T08:00:43.133Z,6.88
2023-03-15T08:01:45.073Z,6.17
2023-03-15T08:02:47.309Z,5.75
2023-03-15T08:03:49.205Z,5.66
2023-03-15T08:04:51.189Z,6.13
2023-03-15T08:05:53.192Z,5.89
2023-03-15T08:06:55.644Z,6.71
2023-03-15T08:07:57.686Z,6.69
2023-03-15T08:08:59.682Z,6.51
2023-03-15T08:11:13.675Z,6.14
2023-03-15T08:12:15.574Z,6.05
2023-03-15T08:13:17.556Z,6.00
2023-03-15T08:14:19.551Z,5.74
2023-03-15T08:15:21.555Z,5.77
2023-03-15T08:16:23.718Z,5.98
2023-03-15T08:17:25.714Z,5.79
2023-03-15T08:18:27.572Z,5.73
2023-03-15T08:19:29.509Z,5.47
2023-03-15T08:20:32.123Z,5.56
2023-03-15T08:21:34.402Z,5.64
2023-03-15T08:22:40.228Z,5.58
2023-03-15T08:23:43.361Z,5.39
2023-03-15T08:24:45.436Z,5.50
2023-03-15T08:25:50.699Z,5.15
2023-03-15T08:26:52.905Z,5.73
2023-03-15T08:27:55.779Z,6.30
2023-03-15T08:28:57.652Z,5.61
2023-03-15T08:30:00.409Z,6.09
2023-03-15T08:31:08.456Z,5.81
2023-03-15T08:32:12.745Z,5.63
2023-03-15T08:33:16.012Z,5.74
2023-03-15T08:34:18.723Z,5.83
2023-03-15T08:35:21.482Z,5.87
2023-03-15T08:36:24.071Z,6.09
2023-03-15T08:37:26.171Z,6.19
2023-03-15T08:38:28.145Z,5.24
2023-03-15T08:39:30.132Z,5.25
2023-03-15T08:40:33.076Z,5.40
2023-03-15T08:41:36.497Z,5.05
2023-03-15T08:42:38.520Z,5.91
2023-03-15T08:43:41.339Z,5.85
2023-03-15T08:44:43.353Z,5.99
2023-03-15T08:46:00.323Z,5.46
2023-03-15T08:46:50.946Z,5.18
2023-03-15T08:49:09.728Z,5.29
2023-03-15T08:50:14.453Z,4.85
2023-03-15T08:51:16.441Z,5.54
2023-03-15T08:52:19.774Z,5.17
2023-03-15T08:53:22.232Z,4.95
2023-03-15T08:54:24.783Z,4.95
2023-03-15T08:55:26.774Z,4.83
2023-03-15T08:56:30.958Z,4.56
2023-03-15T08:57:34.252Z,5.38
2023-03-15T08:58:36.564Z,5.06
2023-03-15T08:59:39.268Z,5.20
2023-03-15T09:00:41.267Z,4.86
2023-03-15T09:01:44.249Z,5.26
2023-03-15T09:02:49.197Z,4.27
2023-03-15T09:03:51.208Z,5.60
2023-03-15T09:04:53.660Z,4.13
2023-03-15T09:07:08.155Z,5.19
2023-03-15T09:08:10.863Z,5.09
2023-03-15T09:09:12.878Z,5.25
2023-03-15T09:10:16.559Z,4.63
2023-03-15T09:11:19.179Z,4.95
2023-03-15T09:12:21.233Z,4.65
2023-03-15T09:13:26.141Z,5.29
2023-03-15T09:14:28.194Z,4.97
2023-03-15T09:15:30.253Z,4.90
2023-03-15T09:16:32.910Z,4.75
2023-03-15T09:17:34.964Z,5.01
2023-03-15T09:18:36.894Z,4.87
2023-03-15T09:19:39.132Z,4.49
2023-03-15T09:20:41.125Z,4.63
2023-03-15T09:21:44.981Z,5.13
2023-03-15T09:22:53.081Z,5.16
2023-03-15T09:23:55.037Z,4.87
2023-03-15T09:24:57.019Z,5.21
2023-03-15T09:25:59.078Z,4.91
2023-03-15T09:27:01.586Z,4.80
2023-03-15T09:28:05.325Z,5.12
2023-03-15T09:29:09.566Z,4.83
2023-03-15T09:30:13.534Z,4.32
2023-03-15T09:31:15.531Z,4.51
2023-03-15T09:32:17.567Z,4.43
2023-03-15T09:33:21.603Z,5.07
2023-03-15T09:34:25.380Z,4.67
2023-03-15T09:35:27.696Z,3.90
2023-03-15T09:36:30.019Z,4.16
2023-03-15T09:37:32.460Z,4.68
2023-03-15T09:38:34.436Z,4.33
2023-03-15T09:39:36.554Z,4.39
2023-03-15T09:40:41.851Z,4.81
2023-03-15T09:41:47.665Z,4.54
2023-03-15T09:44:25.191Z,5.51
2023-03-15T09:45:47.868Z,5.49
2023-03-15T09:47:10.473Z,5.84
2023-03-15T09:48:31.563Z,5.17
2023-03-15T09:49:52.379Z,5.42
2023-03-15T09:50:58.417Z,5.10
2023-03-15T09:52:04.119Z,4.76
2023-03-15T09:53:09.819Z,4.86
2023-03-15T09:54:23.970Z,4.94
2023-03-15T09:55:28.131Z,6.36
2023-03-15T09:56:36.912Z,5.78
2023-03-15T09:57:42.611Z,5.03
2023-03-15T09:58:45.612Z,5.57
2023-03-15T09:59:51.313Z,5.22
2023-03-15T10:00:58.414Z,4.89
2023-03-15T10:02:16.068Z,5.48
2023-03-15T10:03:27.818Z,5.00
2023-03-15T10:04:32.595Z,4.21
2023-03-15T10:05:47.118Z,5.40
2023-03-15T10:06:53.794Z,4.89
2023-03-15T10:07:55.791Z,5.07
2023-03-15T10:09:01.650Z,4.71
2023-03-15T10:10:07.763Z,4.74
2023-03-15T10:11:22.517Z,4.83
2023-03-15T10:12:31.221Z,4.48
2023-03-15T10:13:52.054Z,4.97
2023-03-15T10:14:57.734Z,4.46
2023-03-15T10:16:06.510Z,4.33
2023-03-15T10:17:11.734Z,4.88
2023-03-15T10:18:26.591Z,4.23
2023-03-15T10:19:49.974Z,4.47
2023-03-15T10:20:55.796Z,4.73
2023-03-15T10:22:16.049Z,5.00
2023-03-15T10:23:24.726Z,4.78
2023-03-15T10:24:30.475Z,4.97
2023-03-15T10:25:34.624Z,4.57
2023-03-15T10:26:41.046Z,4.32
2023-03-15T10:27:49.574Z,4.33
2023-03-15T10:28:52.752Z,4.05
2023-03-15T10:29:57.428Z,4.21
2023-03-15T10:31:01.499Z,4.50
2023-03-15T10:32:05.824Z,4.16
2023-03-15T10:33:17.679Z,4.91
2023-03-15T10:34:21.226Z,4.42
2023-03-15T10:35:24.368Z,4.64
2023-03-15T10:36:26.415Z,4.89
2023-03-15T10:37:28.476Z,4.44
2023-03-15T10:38:30.371Z,4.01
2023-03-15T10:39:32.335Z,4.01
2023-03-15T10:42:03.231Z,4.07
2023-03-15T10:43:15.054Z,4.48
2023-03-15T10:44:20.706Z,3.72
2023-03-15T10:45:25.158Z,3.79
2023-03-15T10:46:27.570Z,3.72
2023-03-15T10:47:29.833Z,3.90
2023-03-15T10:48:34.676Z,3.61
2023-03-15T10:49:39.229Z,4.04
2023-03-15T10:50:41.471Z,3.79
2023-03-15T10:51:48.003Z,4.06
2023-03-15T10:52:52.012Z,3.83
2023-03-15T10:53:58.262Z,3.46
2023-03-15T10:55:18.601Z,3.16
2023-03-15T10:57:40.401Z,3.82
2023-03-15T10:58:55.124Z,4.39
2023-03-15T11:00:00.995Z,3.81
2023-03-15T11:01:05.476Z,3.97
2023-03-15T11:02:19.902Z,4.02
2023-03-15T11:03:23.628Z,4.06
2023-03-15T11:04:25.840Z,4.42
2023-03-15T11:05:40.239Z,4.55
2023-03-15T11:06:55.049Z,4.34
2023-03-15T11:07:59.612Z,3.77
2023-03-15T11:09:11.370Z,3.92
2023-03-15T11:10:17.914Z,4.02
2023-03-15T11:11:20.663Z,3.51
2023-03-15T11:12:25.510Z,4.17
2023-03-15T11:13:30.178Z,4.70
2023-03-15T11:14:35.993Z,4.84
2023-03-15T11:15:41.360Z,4.59
2023-03-15T11:16:49.798Z,4.41
2023-03-15T11:17:52.066Z,4.51
2023-03-15T11:19:02.750Z,3.69
2023-03-15T11:20:30.252Z,4.84
2023-03-15T11:21:34.758Z,4.49
2023-03-15T11:22:36.788Z,4.69
2023-03-15T11:23:41.670Z,4.90
2023-03-15T11:24:43.692Z,4.93
2023-03-15T11:25:46.054Z,4.67
2023-03-15T11:26:50.278Z,3.82
2023-03-15T11:27:52.773Z,4.05
2023-03-15T11:29:01.492Z,5.25
2023-03-15T11:30:04.624Z,4.63
2023-03-15T11:31:07.317Z,5.20
2023-03-15T11:32:28.165Z,4.59
2023-03-15T11:33:43.452Z,4.78
2023-03-15T11:34:52.033Z,4.49
2023-03-15T11:35:56.810Z,4.12
2023-03-15T11:37:08.346Z,4.39
2023-03-15T11:38:19.544Z,4.34
2023-03-15T11:39:25.980Z,4.12
2023-03-15T11:40:43.933Z,5.27
2023-03-15T11:41:49.674Z,4.05
2023-03-15T11:43:00.957Z,3.72
2023-03-15T11:44:23.595Z,4.07
2023-03-15T11:45:41.625Z,4.35
2023-03-15T11:46:50.213Z,4.31
2023-03-15T11:48:01.839Z,4.69
2023-03-15T11:49:16.390Z,5.27
2023-03-15T11:50:19.352Z,4.68
2023-03-15T11:51:21.562Z,4.68
2023-03-15T11:52:26.387Z,4.67
2023-03-15T11:53:38.194Z,5.30
2023-03-15T11:54:40.905Z,4.87
2023-03-15T11:55:49.455Z,4.31
2023-03-15T11:56:55.993Z,4.25
2023-03-15T11:58:01.719Z,4.83
2023-03-15T11:59:10.122Z,4.38
2023-03-15T12:00:35.256Z,4.34
2023-03-15T12:01:42.544Z,4.42
2023-03-15T12:02:51.083Z,4.64
2023-03-15T12:04:15.570Z,4.51
2023-03-15T12:06:54.350Z,4.79
2023-03-15T12:07:59.390Z,5.32
2023-03-15T12:09:02.954Z,5.13
2023-03-15T12:10:20.939Z,4.45
2023-03-15T12:11:26.708Z,4.28
2023-03-15T12:12:32.824Z,5.23
2023-03-15T12:13:35.537Z,5.13
2023-03-15T12:14:37.516Z,5.94
2023-03-15T12:15:42.540Z,6.61
2023-03-15T12:16:45.690Z,6.01
2023-03-15T12:17:55.779Z,6.76
2023-03-15T12:19:00.289Z,6.70
2023-03-15T12:20:12.334Z,6.25
2023-03-15T12:21:23.009Z,6.82
2023-03-15T12:22:29.512Z,6.31
2023-03-15T12:23:56.812Z,6.19
2023-03-15T12:25:02.624Z,10.63
2023-03-15T12:26:09.003Z,6.99
2023-03-15T12:27:19.969Z,5.64
2023-03-15T12:28:31.571Z,6.86
2023-03-15T12:29:35.122Z,6.10
2023-03-15T12:30:41.101Z,6.46
2023-03-15T12:32:04.785Z,5.82
2023-03-15T12:33:19.923Z,6.40
2023-03-15T12:35:39.480Z,5.46
2023-03-15T12:36:45.317Z,5.42
2023-03-15T12:37:50.230Z,5.76
2023-03-15T12:39:02.892Z,5.52
2023-03-15T12:40:21.103Z,6.01
2023-03-15T12:41:36.236Z,6.67
2023-03-15T12:42:42.050Z,6.42
2023-03-15T12:43:47.596Z,5.90
2023-03-15T12:44:49.735Z,5.22
2023-03-15T12:45:52.093Z,5.95
2023-03-15T12:46:57.154Z,5.14
2023-03-15T12:48:02.846Z,5.41
2023-03-15T12:49:17.679Z,5.37
2023-03-15T12:50:45.413Z,5.60
2023-03-15T12:52:12.628Z,5.88
2023-03-15T12:53:31.005Z,6.46
2023-03-15T12:56:22.101Z,5.13
2023-03-15T12:57:29.598Z,5.38
2023-03-15T12:58:40.254Z,6.06
2023-03-15T12:59:48.839Z,6.41
2023-03-15T13:00:53.106Z,5.10
2023-03-15T13:01:57.822Z,5.71
2023-03-15T13:03:09.694Z,5.56
2023-03-15T13:04:12.455Z,4.56
2023-03-15T13:06:46.937Z,4.76
2023-03-15T13:07:55.158Z,4.83
2023-03-15T13:09:17.469Z,4.73
2023-03-15T13:10:26.216Z,5.53
2023-03-15T13:11:34.893Z,5.36
2023-03-15T13:12:40.665Z,5.30
2023-03-15T13:13:52.254Z,5.25
2023-03-15T13:15:04.318Z,4.81
2023-03-15T13:16:19.596Z,6.14
2023-03-15T13:17:51.391Z,5.37
2023-03-15T13:19:03.074Z,5.73
2023-03-15T13:20:31.270Z,5.50
2023-03-15T13:21:36.606Z,5.11
2023-03-15T13:22:55.512Z,5.62
2023-03-15T13:23:57.711Z,5.33
2023-03-15T13:25:15.136Z,4.78
2023-03-15T13:26:30.224Z,5.13
2023-03-15T13:27:50.891Z,4.96
2023-03-15T13:29:05.844Z,5.21
2023-03-15T13:30:28.248Z,4.61
2023-03-15T13:31:31.680Z,5.27
2023-03-15T13:32:34.380Z,4.91
2023-03-15T13:33:36.618Z,4.80
2023-03-15T13:34:39.885Z,4.97
2023-03-15T13:35:44.912Z,6.42
2023-03-15T13:36:50.128Z,5.58
2023-03-15T13:37:55.839Z,5.69
2023-03-15T13:38:58.133Z,5.39
2023-03-15T13:40:06.910Z,5.65
2023-03-15T13:41:24.645Z,5.68
2023-03-15T13:42:27.978Z,5.23
2023-03-15T13:43:36.503Z,4.94
2023-03-15T13:44:38.529Z,5.39
2023-03-15T13:45:43.831Z,4.95
2023-03-15T13:46:48.896Z,4.93
2023-03-15T13:47:50.911Z,5.40
2023-03-15T13:48:57.800Z,5.39
2023-03-15T13:50:05.400Z,5.71
2023-03-15T13:51:26.285Z,5.07
2023-03-15T13:52:28.954Z,5.25
2023-03-15T13:53:48.940Z,5.17
2023-03-15T13:54:41.559Z,5.32
2023-03-15T13:55:47.312Z,5.22
2023-03-15T13:56:59.369Z,5.66
2023-03-15T13:58:07.496Z,5.20
2023-03-15T13:59:11.409Z,9.03
2023-03-15T14:00:17.388Z,6.66
2023-03-15T14:01:21.972Z,6.15
2023-03-15T14:02:36.845Z,6.43
2023-03-15T14:03:42.030Z,6.06
2023-03-15T14:04:50.533Z,5.99
2023-03-15T14:05:55.839Z,6.32
2023-03-15T14:07:16.976Z,5.49
2023-03-15T14:08:34.623Z,6.03
2023-03-15T14:09:36.633Z,5.94
2023-03-15T14:10:39.792Z,6.59
2023-03-15T14:11:42.242Z,9.69
2023-03-15T14:12:45.391Z,11.69
2023-03-15T14:13:59.440Z,12.82
2023-03-15T14:15:01.730Z,10.82
2023-03-15T14:16:06.529Z,9.85
2023-03-15T14:17:28.008Z,10.73
2023-03-15T14:18:37.002Z,10.91
2023-03-15T14:19:39.044Z,10.70
2023-03-15T14:20:47.354Z,10.39
2023-03-15T14:21:55.439Z,11.74
2023-03-15T14:23:00.653Z,10.23
2023-03-15T14:24:05.904Z,10.60
2023-03-15T14:25:20.395Z,11.31
2023-03-15T14:26:28.352Z,10.87
2023-03-15T14:27:32.245Z,10.06
2023-03-15T14:28:38.126Z,9.77
2023-03-15T14:29:49.297Z,9.86
2023-03-15T14:30:55.653Z,10.64
2023-03-15T14:32:04.302Z,10.64
2023-03-15T14:33:09.988Z,11.60
2023-03-15T14:34:21.561Z,10.59
2023-03-15T14:35:33.269Z,10.66
2023-03-15T14:36:45.550Z,11.12
2023-03-15T14:38:08.916Z,11.24
2023-03-15T14:40:42.021Z,10.53